Time;durP1;ratioP1;P1;durP2;ratioP2;P2;SDS_P1;SDS_P2;PMS_P1;PMS_P2;Temp;Humidity;BMP_temperature;BMP_pressure;BME280_temperature;BME280_humidity;BME280_pressure;Samples;Min_cycle;Max_cycle;Signal;HPM_P1;HPM_P2
2021/05/29 00:02:20;;;;;;;3.73;3.30;;;12.30;99.90;;;;;;5109237;28;20198;-80
2021/05/29 00:04:46;;;;;;;3.43;3.23;;;12.10;99.90;;;;;;5050520;28;20614;-79
2021/05/29 00:07:12;;;;;;;3.63;3.33;;;12.10;99.90;;;;;;5005935;28;20209;-78
2021/05/29 00:09:41;;;;;;;3.07;2.87;;;12.10;99.90;;;;;;5006740;28;20281;-81
2021/05/29 00:12:10;;;;;;;2.70;2.50;;;12.10;99.90;;;;;;5018466;28;20575;-79
2021/05/29 00:14:38;;;;;;;3.37;3.07;;;12.10;99.90;;;;;;5024671;28;20229;-79
2021/05/29 00:17:05;;;;;;;3.20;2.93;;;12.10;99.90;;;;;;5031029;28;20223;-80
2021/05/29 00:19:32;;;;;;;4.30;2.80;;;12.10;99.90;;;;;;5052158;28;20202;-80
2021/05/29 00:21:58;;;;;;;2.90;2.70;;;12.10;99.90;;;;;;5108963;28;20210;-79
2021/05/29 00:24:24;;;;;;;3.30;2.93;;;12.10;99.90;;;;;;5108930;28;20202;-80
2021/05/29 00:26:50;;;;;;;3.87;2.83;;;12.00;99.90;;;;;;5109116;28;21033;-81
2021/05/29 00:29:17;;;;;;;3.17;2.97;;;12.00;99.90;;;;;;5108554;28;20226;-81
2021/05/29 00:31:44;;;;;;;5.53;3.13;;;12.00;99.90;;;;;;5109337;28;20221;-80
2021/05/29 00:34:10;;;;;;;2.90;2.70;;;12.00;99.90;;;;;;5017139;28;20213;-81
2021/05/29 00:36:36;;;;;;;3.37;2.70;;;11.90;99.90;;;;;;5006013;28;20227;-80
2021/05/29 00:39:03;;;;;;;3.43;3.00;;;11.90;99.90;;;;;;5006015;28;20237;-80
2021/05/29 00:41:29;;;;;;;2.77;2.57;;;11.80;99.90;;;;;;5006065;28;20218;-81
2021/05/29 00:43:55;;;;;;;3.23;2.93;;;11.80;99.90;;;;;;5005714;28;20241;-82
2021/05/29 00:46:22;;;;;;;2.90;2.73;;;11.80;99.90;;;;;;5005717;28;20295;-82
2021/05/29 00:48:49;;;;;;;2.57;2.40;;;11.80;99.90;;;;;;5006211;28;20770;-81
2021/05/29 00:51:15;;;;;;;3.20;2.90;;;11.80;99.90;;;;;;5005871;28;20304;-79
2021/05/29 00:53:41;;;;;;;4.37;3.03;;;11.80;99.90;;;;;;5006180;28;20213;-81
2021/05/29 00:56:08;;;;;;;3.00;2.70;;;11.70;99.90;;;;;;5005944;28;20225;-81
2021/05/29 00:58:34;;;;;;;2.90;2.70;;;11.70;99.90;;;;;;5006207;28;20292;-80
2021/05/29 01:01:01;;;;;;;3.00;2.80;;;11.70;99.90;;;;;;5005289;28;20229;-80
2021/05/29 01:03:31;;;;;;;3.17;2.83;;;11.60;99.90;;;;;;5005625;27;20224;-80
2021/05/29 01:05:57;;;;;;;3.07;2.87;;;11.60;99.90;;;;;;5005830;28;20205;-81
2021/05/29 01:08:24;;;;;;;3.13;2.83;;;11.60;99.90;;;;;;5005502;28;20610;-82
2021/05/29 01:10:51;;;;;;;3.70;2.80;;;11.60;99.90;;;;;;5005194;28;20328;-80
2021/05/29 01:13:20;;;;;;;2.93;2.63;;;11.60;99.90;;;;;;5005471;28;20206;-81
2021/05/29 01:15:49;;;;;;;2.90;2.70;;;11.60;99.90;;;;;;5005239;28;20290;-80
2021/05/29 01:18:17;;;;;;;4.50;2.57;;;11.50;99.90;;;;;;5005224;28;20224;-82
2021/05/29 01:20:46;;;;;;;3.23;3.00;;;11.50;99.90;;;;;;5005405;28;20216;-80
2021/05/29 01:23:13;;;;;;;3.77;3.10;;;11.50;99.90;;;;;;5005487;28;20209;-81
2021/05/29 01:25:42;;;;;;;3.13;2.87;;;11.50;99.90;;;;;;5005542;28;20209;-79
2021/05/29 01:28:12;;;;;;;3.20;3.00;;;11.40;99.90;;;;;;5004927;28;20638;-80
2021/05/29 01:30:41;;;;;;;3.30;2.80;;;11.40;99.90;;;;;;5005571;28;20222;-82
2021/05/29 01:33:10;;;;;;;4.60;3.30;;;11.30;99.90;;;;;;5005051;28;20733;-81
2021/05/29 01:35:37;;;;;;;3.50;3.13;;;11.30;99.90;;;;;;5005616;28;20225;-82
2021/05/29 01:38:05;;;;;;;3.87;3.10;;;11.30;99.90;;;;;;5007732;28;20247;-82
2021/05/29 01:40:32;;;;;;;3.30;3.00;;;11.30;99.90;;;;;;5008296;28;20711;-81
2021/05/29 01:42:59;;;;;;;3.47;2.97;;;11.30;99.90;;;;;;5008265;28;20214;-81
2021/05/29 01:45:27;;;;;;;4.13;3.20;;;11.30;99.90;;;;;;5008370;28;20206;-80
2021/05/29 01:47:54;;;;;;;3.37;3.13;;;11.30;99.90;;;;;;5008723;28;20201;-80
2021/05/29 01:50:21;;;;;;;3.13;2.83;;;11.20;99.90;;;;;;5008135;28;20241;-81
2021/05/29 01:52:53;;;;;;;3.70;2.97;;;11.30;99.90;;;;;;5008181;28;20668;-81
2021/05/29 01:55:22;;;;;;;3.43;3.13;;;11.20;99.90;;;;;;5008295;28;20210;-81
2021/05/29 01:57:51;;;;;;;4.50;3.37;;;11.20;99.90;;;;;;5008284;28;20217;-81
2021/05/29 02:00:19;;;;;;;3.07;2.87;;;11.20;99.90;;;;;;5008319;28;20209;-80
2021/05/29 02:02:45;;;;;;;3.30;3.10;;;11.20;99.90;;;;;;5008043;28;20206;-81
2021/05/29 02:05:14;;;;;;;3.03;2.83;;;11.20;99.90;;;;;;5008258;28;20551;-80
2021/05/29 02:07:41;;;;;;;3.47;3.27;;;11.10;99.90;;;;;;5008236;28;20246;-81
2021/05/29 02:10:10;;;;;;;3.17;2.83;;;11.10;99.90;;;;;;5007926;28;20240;-80
2021/05/29 02:12:42;;;;;;;2.87;2.67;;;11.10;99.90;;;;;;5008120;28;20213;-81
2021/05/29 02:15:13;;;;;;;3.73;3.20;;;11.10;99.90;;;;;;5007985;28;20230;-81
2021/05/29 02:17:39;;;;;;;4.67;3.50;;;11.10;99.90;;;;;;5008312;28;20205;-81
2021/05/29 02:20:07;;;;;;;3.60;2.97;;;11.00;99.90;;;;;;5007976;28;20633;-81
2021/05/29 02:22:34;;;;;;;3.50;3.20;;;11.00;99.90;;;;;;5008015;28;20217;-81
2021/05/29 02:25:00;;;;;;;3.50;3.20;;;11.00;99.90;;;;;;5008104;28;20213;-81
2021/05/29 02:27:27;;;;;;;3.33;3.00;;;10.90;99.90;;;;;;5008027;28;20206;-79
2021/05/29 02:29:53;;;;;;;4.13;2.87;;;11.00;99.90;;;;;;5007451;28;20609;-79
2021/05/29 02:32:21;;;;;;;4.70;3.00;;;10.90;99.90;;;;;;5007503;28;20213;-79
2021/05/29 02:34:47;;;;;;;4.27;3.10;;;10.90;99.90;;;;;;5007643;28;20576;-78
2021/05/29 02:37:13;;;;;;;4.40;3.40;;;10.90;99.90;;;;;;5007655;28;20213;-78
2021/05/29 02:39:39;;;;;;;2.87;2.67;;;10.90;99.90;;;;;;5007375;28;20238;-78
2021/05/29 02:42:06;;;;;;;3.47;2.90;;;10.90;99.90;;;;;;5007111;28;20237;-78
2021/05/29 02:44:32;;;;;;;2.90;2.70;;;10.90;99.90;;;;;;5007475;28;20234;-78
2021/05/29 02:46:58;;;;;;;2.83;2.73;;;10.90;99.90;;;;;;5007659;28;20209;-79
2021/05/29 02:49:26;;;;;;;3.33;3.13;;;10.90;99.90;;;;;;5006267;28;20269;-81
2021/05/29 02:51:52;;;;;;;3.17;2.80;;;10.90;99.90;;;;;;5007770;28;20206;-80
2021/05/29 02:54:20;;;;;;;3.47;3.20;;;10.90;99.90;;;;;;5006977;28;20572;-80
2021/05/29 02:56:46;;;;;;;3.30;3.10;;;10.90;99.90;;;;;;5007335;28;20316;-78
2021/05/29 02:59:13;;;;;;;2.67;2.47;;;10.90;99.90;;;;;;5007303;28;20214;-79
2021/05/29 03:01:39;;;;;;;3.03;2.83;;;10.90;99.90;;;;;;5007826;28;20218;-83
2021/05/29 03:04:05;;;;;;;5.43;3.03;;;10.90;99.90;;;;;;5007664;28;20216;-83
2021/05/29 03:06:32;;;;;;;3.27;2.97;;;10.90;99.90;;;;;;5007410;28;20233;-80
2021/05/29 03:08:59;;;;;;;3.20;2.90;;;10.90;99.90;;;;;;5007361;28;20225;-79
2021/05/29 03:11:28;;;;;;;3.13;2.80;;;11.00;99.90;;;;;;5007194;28;20212;-78
2021/05/29 03:13:54;;;;;;;3.10;2.90;;;10.90;99.90;;;;;;5007084;28;20256;-77
2021/05/29 03:16:20;;;;;;;3.50;3.20;;;11.00;99.90;;;;;;5007144;28;20240;-78
2021/05/29 03:18:47;;;;;;;3.00;2.80;;;10.90;99.90;;;;;;5007071;28;20574;-78
2021/05/29 03:21:13;;;;;;;4.70;3.27;;;10.90;99.90;;;;;;5006767;28;20220;-79
2021/05/29 03:23:40;;;;;;;3.10;2.90;;;11.00;99.90;;;;;;5006835;28;20593;-79
2021/05/29 03:26:06;;;;;;;3.73;3.43;;;10.90;99.90;;;;;;5006893;28;20302;-80
2021/05/29 03:28:32;;;;;;;3.70;3.40;;;10.90;99.90;;;;;;5006842;28;20213;-81
2021/05/29 03:30:59;;;;;;;4.47;3.50;;;10.90;99.90;;;;;;5006813;28;20241;-80
2021/05/29 03:33:25;;;;;;;3.90;3.60;;;10.90;99.90;;;;;;5007226;28;20246;-80
2021/05/29 03:35:51;;;;;;;5.47;3.43;;;10.90;99.90;;;;;;5007081;28;20220;-80
2021/05/29 03:38:19;;;;;;;3.60;3.30;;;10.80;99.90;;;;;;5006473;28;20201;-79
2021/05/29 03:40:46;;;;;;;4.23;3.83;;;10.80;99.90;;;;;;5006426;28;20577;-79
2021/05/29 03:43:12;;;;;;;4.07;3.77;;;10.80;99.90;;;;;;5006871;28;20241;-81
2021/05/29 03:45:39;;;;;;;4.17;3.77;;;10.90;99.90;;;;;;5007140;28;20210;-80
2021/05/29 03:48:05;;;;;;;5.30;4.90;;;10.90;99.90;;;;;;5006910;28;20209;-81
2021/05/29 03:50:32;;;;;;;4.90;4.40;;;10.80;99.90;;;;;;5006445;28;20307;-81
2021/05/29 03:52:59;;;;;;;5.80;5.20;;;10.70;99.90;;;;;;5006815;28;20308;-81
2021/05/29 03:55:25;;;;;;;6.20;5.27;;;10.80;99.90;;;;;;5006588;28;20210;-81
2021/05/29 03:57:52;;;;;;;6.67;5.30;;;10.80;99.90;;;;;;5006591;28;20651;-81
2021/05/29 04:00:21;;;;;;;6.80;6.10;;;10.80;99.90;;;;;;5006185;28;20228;-81
2021/05/29 04:02:47;;;;;;;6.33;5.70;;;10.80;99.90;;;;;;5006156;28;20221;-80
2021/05/29 04:05:15;;;;;;;6.50;5.90;;;10.80;99.90;;;;;;5006454;28;20209;-80
2021/05/29 04:07:41;;;;;;;6.90;6.30;;;10.80;99.90;;;;;;5006358;28;20202;-80
2021/05/29 04:10:09;;;;;;;7.80;7.00;;;10.80;99.90;;;;;;5006901;28;20725;-81
2021/05/29 04:12:36;;;;;;;7.27;6.53;;;10.90;99.90;;;;;;5006472;28;20205;-80
2021/05/29 04:15:04;;;;;;;7.87;6.83;;;10.80;99.90;;;;;;5006370;28;20843;-81
2021/05/29 04:17:30;;;;;;;6.80;6.17;;;10.80;99.90;;;;;;5006011;28;20206;-80
2021/05/29 04:19:57;;;;;;;8.77;7.87;;;10.80;99.90;;;;;;5006607;28;20210;-80
2021/05/29 04:22:23;;;;;;;9.83;7.53;;;10.70;99.90;;;;;;5006360;28;20577;-80
2021/05/29 04:24:50;;;;;;;10.70;7.50;;;10.70;99.90;;;;;;5006517;28;20612;-80
2021/05/29 04:27:16;;;;;;;10.13;7.77;;;10.80;99.90;;;;;;5005841;28;20685;-80
2021/05/29 04:29:43;;;;;;;9.97;7.20;;;10.70;99.90;;;;;;5006118;28;20286;-80
2021/05/29 04:32:10;;;;;;;10.53;7.47;;;10.60;99.90;;;;;;5007137;28;20736;-84
2021/05/29 04:34:36;;;;;;;8.73;7.93;;;10.60;99.90;;;;;;5006827;28;20217;-83
2021/05/29 04:37:04;;;;;;;8.53;7.67;;;10.70;99.90;;;;;;5006822;28;20206;-83
2021/05/29 04:39:30;;;;;;;8.37;7.10;;;10.70;99.90;;;;;;5006635;28;20227;-82
2021/05/29 04:41:56;;;;;;;9.40;7.83;;;10.70;99.90;;;;;;5006802;28;20216;-83
2021/05/29 04:44:23;;;;;;;9.17;8.07;;;10.70;99.90;;;;;;5006016;28;20241;-83
2021/05/29 04:46:51;;;;;;;8.33;7.40;;;10.80;99.90;;;;;;5006580;28;20213;-82
2021/05/29 04:49:21;;;;;;;10.13;8.33;;;10.70;99.90;;;;;;5005792;28;20763;-83
2021/05/29 04:51:47;;;;;;;11.50;8.07;;;10.60;99.90;;;;;;5006627;28;20201;-83
2021/05/29 04:54:14;;;;;;;10.13;7.77;;;10.40;99.90;;;;;;5006094;28;20216;-81
2021/05/29 04:56:40;;;;;;;9.67;8.23;;;10.40;99.90;;;;;;5005725;28;20270;-81
2021/05/29 04:59:06;;;;;;;8.57;7.63;;;10.40;99.90;;;;;;5005856;28;20227;-81
2021/05/29 05:01:33;;;;;;;11.60;8.70;;;10.50;99.90;;;;;;5005510;28;20236;-81
2021/05/29 05:04:00;;;;;;;11.87;8.87;;;10.20;99.90;;;;;;5005725;28;20275;-81
2021/05/29 05:06:28;;;;;;;11.27;8.90;;;10.30;99.90;;;;;;5005197;28;20205;-80
2021/05/29 05:08:54;;;;;;;9.23;8.13;;;10.40;99.90;;;;;;5005756;28;20741;-81
2021/05/29 05:11:21;;;;;;;10.03;8.47;;;10.50;99.90;;;;;;5005012;28;20287;-81
2021/05/29 05:13:47;;;;;;;9.87;8.37;;;10.60;99.90;;;;;;5009500;28;20703;-82
2021/05/29 05:16:14;;;;;;;13.20;8.33;;;10.60;99.90;;;;;;5009778;28;20213;-82
2021/05/29 05:18:40;;;;;;;10.90;8.90;;;10.70;99.90;;;;;;5009435;28;20691;-82
2021/05/29 05:21:07;;;;;;;13.20;9.30;;;10.70;99.90;;;;;;5008740;28;20214;-82
2021/05/29 05:23:34;;;;;;;9.03;8.13;;;10.50;99.90;;;;;;5008991;28;20660;-81
2021/05/29 05:26:00;;;;;;;10.10;8.50;;;10.60;99.90;;;;;;5009074;28;20586;-81
2021/05/29 05:28:28;;;;;;;8.87;8.03;;;10.70;99.90;;;;;;5008959;28;20231;-82
2021/05/29 05:30:55;;;;;;;8.93;8.03;;;10.80;99.90;;;;;;5008961;28;20241;-81
2021/05/29 05:33:23;;;;;;;9.93;8.93;;;10.90;99.90;;;;;;5009310;28;20210;-82
2021/05/29 05:35:49;;;;;;;10.10;9.00;;;10.90;99.90;;;;;;5008764;28;20214;-80
2021/05/29 05:38:16;;;;;;;10.47;8.70;;;10.90;99.90;;;;;;5008460;28;20232;-81
2021/05/29 05:40:43;;;;;;;10.97;9.17;;;11.00;99.90;;;;;;5008560;28;20214;-81
2021/05/29 05:43:10;;;;;;;12.40;9.63;;;11.00;99.90;;;;;;5008588;28;20233;-79
2021/05/29 05:45:36;;;;;;;10.20;8.83;;;11.10;99.90;;;;;;5008700;28;20618;-79
2021/05/29 05:48:03;;;;;;;9.77;8.77;;;11.00;99.90;;;;;;5008602;28;20214;-79
2021/05/29 05:50:30;;;;;;;12.07;9.10;;;11.10;99.90;;;;;;5008255;28;20237;-80
2021/05/29 05:52:56;;;;;;;10.70;8.40;;;11.10;99.90;;;;;;5008541;28;20210;-81
2021/05/29 05:55:23;;;;;;;11.20;8.30;;;11.10;99.90;;;;;;5008404;28;20221;-81
2021/05/29 05:57:50;;;;;;;10.63;8.57;;;11.10;99.90;;;;;;5009294;28;20213;-84
2021/05/29 06:00:19;;;;;;;9.30;8.13;;;11.20;99.90;;;;;;5010261;28;20635;-84
2021/05/29 06:02:46;;;;;;;10.27;7.73;;;11.30;99.90;;;;;;5009837;28;20220;-84
2021/05/29 06:05:14;;;;;;;9.43;7.83;;;11.30;99.90;;;;;;5009756;28;20592;-83
2021/05/29 06:07:40;;;;;;;10.43;7.80;;;11.40;99.90;;;;;;5008555;28;20201;-81
2021/05/29 06:10:07;;;;;;;11.27;7.97;;;11.50;99.90;;;;;;5008510;28;20237;-81
2021/05/29 06:12:36;;;;;;;11.47;9.03;;;11.60;99.90;;;;;;5008127;28;20217;-79
2021/05/29 06:18:03;;;;;;;13.70;9.70;;;11.50;99.90;;;;;;5008124;28;20201;-79
2021/05/29 06:20:30;;;;;;;13.47;11.73;;;11.60;99.90;;;;;;5008121;28;20232;-79
2021/05/29 06:22:56;;;;;;;11.77;9.70;;;11.50;99.90;;;;;;5007907;28;20235;-79
2021/05/29 06:25:22;;;;;;;11.00;9.57;;;11.60;99.90;;;;;;5007799;28;20213;-78
2021/05/29 06:27:49;;;;;;;11.50;8.53;;;11.50;99.90;;;;;;5007641;28;20604;-78
2021/05/29 06:30:17;;;;;;;12.20;8.33;;;11.50;99.90;;;;;;5007797;28;20261;-77
2021/05/29 06:32:43;;;;;;;10.00;9.00;;;11.50;99.90;;;;;;5004129;28;20267;-76
2021/05/29 06:35:10;;;;;;;12.77;9.87;;;11.40;99.90;;;;;;5001091;28;20667;-77
2021/05/29 06:37:37;;;;;;;12.37;10.57;;;11.20;99.90;;;;;;5005201;28;20297;-77
2021/05/29 06:40:08;;;;;;;10.83;8.73;;;11.30;99.90;;;;;;5007561;28;20270;-82
2021/05/29 06:42:34;;;;;;;11.87;9.40;;;11.30;99.90;;;;;;5004831;28;20278;-78
2021/05/29 06:45:01;;;;;;;11.40;8.10;;;11.40;99.90;;;;;;5007065;28;20644;-80
2021/05/29 06:47:28;;;;;;;11.10;9.33;;;11.50;99.90;;;;;;5007366;28;20205;-78
2021/05/29 06:49:54;;;;;;;12.70;8.93;;;11.60;99.90;;;;;;5005362;28;20221;-81
2021/05/29 06:52:23;;;;;;;11.73;9.33;;;11.60;99.90;;;;;;5007402;28;20221;-79
2021/05/29 06:54:58;;;;;;;12.07;8.37;;;11.60;99.90;;;;;;5006463;28;20214;-78
2021/05/29 07:00:10;;;;;;;11.47;8.03;;;11.50;99.90;;;;;;4994050;28;20209;-78
2021/05/29 07:02:38;;;;;;;14.00;9.13;;;11.60;99.90;;;;;;4985939;28;20263;-78
2021/05/29 07:05:09;;;;;;;14.87;9.27;;;11.70;99.90;;;;;;4985839;28;20210;-79
2021/05/29 07:07:35;;;;;;;13.60;9.83;;;11.60;99.90;;;;;;4985133;28;20208;-78
2021/05/29 07:10:01;;;;;;;18.00;10.57;;;11.40;99.90;;;;;;4985601;28;20233;-79
2021/05/29 07:12:27;;;;;;;11.33;8.80;;;11.50;99.90;;;;;;4996282;28;20224;-80
2021/05/29 07:14:54;;;;;;;14.63;9.33;;;11.70;99.90;;;;;;5001448;28;20257;-81
2021/05/29 07:17:22;;;;;;;14.90;9.90;;;11.70;99.90;;;;;;5004495;28;20209;-80
2021/05/29 07:19:49;;;;;;;12.93;8.50;;;11.80;99.90;;;;;;5004282;28;20669;-80
2021/05/29 07:22:15;;;;;;;10.97;8.27;;;12.00;99.90;;;;;;5004919;28;20202;-80
2021/05/29 07:24:41;;;;;;;12.27;8.10;;;12.10;99.90;;;;;;5003789;28;20216;-79
2021/05/29 07:27:08;;;;;;;10.17;7.70;;;12.10;99.90;;;;;;5005049;28;20255;-79
2021/05/29 07:29:34;;;;;;;12.60;7.73;;;12.20;99.90;;;;;;5004283;28;20209;-79
2021/05/29 07:32:00;;;;;;;9.70;7.40;;;12.20;99.90;;;;;;5004052;28;20201;-80
2021/05/29 07:34:27;;;;;;;8.73;6.50;;;12.30;99.90;;;;;;5003529;28;20198;-80
2021/05/29 07:36:54;;;;;;;8.63;6.47;;;12.40;99.90;;;;;;5004289;28;20257;-80
2021/05/29 07:39:20;;;;;;;9.10;6.47;;;12.50;99.90;;;;;;5003818;28;20282;-79
2021/05/29 07:41:46;;;;;;;7.67;6.90;;;12.60;99.90;;;;;;5004181;28;20218;-80
2021/05/29 07:44:13;;;;;;;8.47;6.67;;;12.70;99.90;;;;;;5004039;28;20604;-78
2021/05/29 07:46:39;;;;;;;9.13;6.87;;;12.60;99.90;;;;;;5004153;28;20217;-80
2021/05/29 07:49:07;;;;;;;10.57;7.07;;;12.50;99.90;;;;;;5004364;28;20209;-79
2021/05/29 07:51:36;;;;;;;8.00;6.30;;;12.40;99.90;;;;;;5003279;28;20594;-79
2021/05/29 07:54:04;;;;;;;6.70;6.07;;;12.50;99.90;;;;;;5003605;28;20233;-79
2021/05/29 07:56:30;;;;;;;7.73;5.73;;;12.70;99.90;;;;;;4999930;28;20210;-79
2021/05/29 07:58:58;;;;;;;9.00;5.93;;;12.90;99.90;;;;;;5002213;28;20213;-79
2021/05/29 08:01:25;;;;;;;8.30;6.23;;;13.10;99.90;;;;;;5005688;28;20248;-79
2021/05/29 08:03:51;;;;;;;10.20;6.20;;;13.00;99.90;;;;;;5006278;28;20201;-79
2021/05/29 08:06:19;;;;;;;9.50;6.53;;;13.00;99.90;;;;;;5006113;28;20202;-80
2021/05/29 08:08:46;;;;;;;10.07;6.67;;;13.00;99.90;;;;;;5006307;28;20250;-77
2021/05/29 08:11:18;;;;;;;9.90;7.07;;;12.90;99.90;;;;;;5006387;28;20237;-78
2021/05/29 08:13:44;;;;;;;10.97;7.47;;;12.90;99.90;;;;;;5006173;28;20229;-78
2021/05/29 08:16:12;;;;;;;12.97;7.60;;;12.80;99.90;;;;;;5006289;28;20215;-78
2021/05/29 08:18:39;;;;;;;9.70;7.00;;;12.80;99.90;;;;;;5005967;28;20213;-77
2021/05/29 08:21:06;;;;;;;8.63;6.93;;;13.00;99.90;;;;;;5005911;28;20708;-77
2021/05/29 08:23:32;;;;;;;8.43;6.60;;;13.00;99.90;;;;;;5006329;28;20216;-80
2021/05/29 08:25:59;;;;;;;10.60;8.57;;;12.90;99.90;;;;;;5006028;28;20223;-80
2021/05/29 08:28:27;;;;;;;14.50;8.30;;;13.00;99.90;;;;;;5005500;28;20209;-80
2021/05/29 08:30:53;;;;;;;9.23;7.07;;;12.80;99.90;;;;;;5006068;28;20269;-80
2021/05/29 08:33:19;;;;;;;10.77;7.67;;;12.90;99.90;;;;;;5005979;28;20213;-79
2021/05/29 08:35:45;;;;;;;9.33;7.53;;;12.90;99.90;;;;;;5005436;28;20591;-80
2021/05/29 08:38:12;;;;;;;9.53;6.97;;;13.00;99.90;;;;;;5006172;28;20230;-80
2021/05/29 08:40:38;;;;;;;8.37;7.50;;;13.20;99.90;;;;;;5005633;28;20197;-80
2021/05/29 08:43:04;;;;;;;12.10;7.60;;;13.20;99.90;;;;;;5005369;28;20234;-79
2021/05/29 08:45:32;;;;;;;7.97;6.37;;;13.10;99.90;;;;;;5006094;28;20231;-79
2021/05/29 08:47:58;;;;;;;7.70;6.80;;;13.20;99.90;;;;;;5009237;28;20574;-79
2021/05/29 08:50:24;;;;;;;9.23;6.87;;;13.40;99.90;;;;;;5009335;28;20233;-79
2021/05/29 08:52:51;;;;;;;8.87;7.07;;;13.50;99.90;;;;;;5008832;28;20202;-80
2021/05/29 08:55:19;;;;;;;11.03;7.20;;;13.50;99.90;;;;;;5009455;28;20659;-82
2021/05/29 08:57:48;;;;;;;10.10;8.00;;;13.50;99.90;;;;;;5009360;28;20671;-82
2021/05/29 09:00:17;;;;;;;8.57;7.37;;;13.50;99.90;;;;;;5009249;28;20210;-83
2021/05/29 09:02:57;;;;;;;9.50;7.30;;;13.60;99.90;;;;;;5009177;28;20210;-80
2021/05/29 09:05:34;;;;;;;11.90;7.33;;;13.40;99.90;;;;;;5009121;28;20227;-80
2021/05/29 09:08:05;;;;;;;9.87;6.80;;;13.30;99.90;;;;;;5009508;28;20217;-79
2021/05/29 09:10:35;;;;;;;8.40;6.50;;;13.20;99.90;;;;;;5008654;28;20710;-79
2021/05/29 09:13:03;;;;;;;9.13;6.07;;;13.50;99.90;;;;;;5008977;28;20695;-78
2021/05/29 09:15:44;;;;;;;6.83;6.13;;;13.50;99.90;;;;;;5009065;28;20304;-78
2021/05/29 09:18:25;;;;;;;9.27;6.80;;;13.70;99.90;;;;;;5009009;28;20638;-79
2021/05/29 09:20:51;;;;;;;6.90;5.87;;;13.80;99.90;;;;;;5009084;28;20198;-78
2021/05/29 09:23:17;;;;;;;8.30;6.80;;;13.70;99.90;;;;;;5008901;28;20216;-79
2021/05/29 09:25:53;;;;;;;9.70;7.27;;;13.40;99.90;;;;;;5008806;28;20205;-78
2021/05/29 09:28:23;;;;;;;10.13;6.90;;;13.50;99.90;;;;;;5008952;28;20727;-78
2021/05/29 09:30:51;;;;;;;9.83;7.53;;;13.50;99.90;;;;;;5008745;28;20272;-79
2021/05/29 09:33:19;;;;;;;8.80;7.10;;;13.40;99.90;;;;;;5009064;28;20213;-78
2021/05/29 09:35:55;;;;;;;7.63;6.80;;;13.60;99.90;;;;;;5008689;28;20218;-79
2021/05/29 09:38:22;;;;;;;8.53;6.60;;;13.50;99.90;;;;;;5008779;28;20232;-79
2021/05/29 09:40:50;;;;;;;11.10;7.37;;;13.60;99.90;;;;;;5008568;28;20210;-79
2021/05/29 09:43:16;;;;;;;8.47;6.63;;;13.70;99.90;;;;;;5008249;28;20731;-79
2021/05/29 09:45:42;;;;;;;10.17;8.50;;;13.90;99.90;;;;;;5008372;28;20206;-78
2021/05/29 09:48:16;;;;;;;8.40;7.43;;;13.90;99.90;;;;;;5008615;28;20202;-79
2021/05/29 09:51:01;;;;;;;8.67;7.30;;;13.80;99.90;;;;;;5008679;28;20217;-80
2021/05/29 09:53:29;;;;;;;9.83;7.53;;;13.70;99.90;;;;;;5011247;28;20198;-87
2021/05/29 09:55:56;;;;;;;8.63;6.87;;;13.60;99.90;;;;;;4993126;28;20676;-80
2021/05/29 09:58:46;;;;;;;8.30;7.20;;;13.60;99.90;;;;;;5006798;28;20292;-79
2021/05/29 10:01:35;;;;;;;11.73;7.70;;;13.60;99.90;;;;;;5008087;28;20205;-79
2021/05/29 10:04:03;;;;;;;8.83;7.73;;;13.90;99.90;;;;;;5008242;28;20206;-80
2021/05/29 10:06:30;;;;;;;7.77;6.93;;;14.20;99.90;;;;;;5007623;28;20201;-80
2021/05/29 10:08:57;;;;;;;8.40;6.20;;;14.30;99.90;;;;;;5007881;28;20572;-80
2021/05/29 10:11:23;;;;;;;7.20;6.20;;;14.40;99.90;;;;;;5008296;28;20313;-80
2021/05/29 10:13:50;;;;;;;11.10;6.53;;;14.60;99.90;;;;;;5007549;28;20707;-80
2021/05/29 10:16:17;;;;;;;9.47;6.63;;;14.50;99.90;;;;;;5007549;28;20223;-80
2021/05/29 10:18:47;;;;;;;8.20;6.20;;;14.60;99.90;;;;;;5006230;28;20225;-79
2021/05/29 10:21:14;;;;;;;7.33;6.63;;;14.60;99.90;;;;;;5006186;28;20573;-78
2021/05/29 10:23:45;;;;;;;7.40;6.13;;;14.50;99.90;;;;;;5006791;28;20206;-80
2021/05/29 10:26:11;;;;;;;8.67;6.80;;;14.70;99.90;;;;;;5007203;28;20259;-81
2021/05/29 10:28:39;;;;;;;8.80;6.47;;;14.80;99.90;;;;;;5008654;28;20561;-82
2021/05/29 10:31:06;;;;;;;7.17;6.17;;;15.00;99.90;;;;;;5007660;28;20301;-81
2021/05/29 10:33:39;;;;;;;9.57;7.53;;;15.20;99.90;;;;;;5007227;28;20664;-80
2021/05/29 10:36:06;;;;;;;9.17;7.57;;;15.30;99.90;;;;;;4997350;28;20581;-80
2021/05/29 10:38:43;;;;;;;10.10;6.97;;;14.90;99.90;;;;;;5003203;28;20313;-81
2021/05/29 10:41:10;;;;;;;8.27;6.20;;;14.70;99.90;;;;;;4992082;28;20223;-79
2021/05/29 10:43:36;;;;;;;9.83;6.93;;;14.80;99.90;;;;;;5005818;28;20361;-79
2021/05/29 10:46:12;;;;;;;6.27;5.63;;;14.80;99.90;;;;;;5006527;28;20677;-79
2021/05/29 10:48:50;;;;;;;6.77;6.17;;;15.00;99.90;;;;;;5005798;28;20205;-80
2021/05/29 10:51:18;;;;;;;7.90;7.00;;;15.10;99.90;;;;;;5005679;28;20233;-80
2021/05/29 10:53:47;;;;;;;7.17;6.57;;;14.90;99.90;;;;;;5005755;28;20248;-80
2021/05/29 10:56:31;;;;;;;9.43;6.53;;;14.90;99.90;;;;;;5005479;28;20220;-80
2021/05/29 10:59:07;;;;;;;7.67;6.07;;;15.10;99.90;;;;;;5005342;28;20255;-80
2021/05/29 11:01:59;;;;;;;9.23;6.67;;;15.40;99.90;;;;;;5005323;28;20213;-79
2021/05/29 11:04:26;;;;;;;7.73;5.90;;;15.50;99.90;;;;;;5005541;28;20205;-79
2021/05/29 11:06:54;;;;;;;6.27;5.67;;;15.70;99.90;;;;;;5005600;28;20213;-80
2021/05/29 11:09:52;;;;;;;12.20;6.30;;;15.50;99.90;;;;;;5003893;28;20218;-80
2021/05/29 11:12:21;;;;;;;8.53;7.63;;;15.50;99.90;;;;;;5002707;28;20214;-80
2021/05/29 11:14:51;;;;;;;8.20;7.40;;;15.40;99.90;;;;;;5005473;28;20278;-80
2021/05/29 11:17:19;;;;;;;10.37;7.00;;;15.40;99.90;;;;;;5005281;28;20209;-80
2021/05/29 11:20:13;;;;;;;7.00;6.30;;;15.30;99.90;;;;;;5005872;28;20209;-80
2021/05/29 11:22:45;;;;;;;7.20;6.60;;;15.50;99.90;;;;;;5004367;28;20648;-79
2021/05/29 11:25:16;;;;;;;7.80;6.83;;;15.40;99.90;;;;;;5005245;28;20305;-80
2021/05/29 11:27:45;;;;;;;6.80;6.20;;;15.60;99.90;;;;;;5005339;28;20200;-79
2021/05/29 11:30:14;;;;;;;8.37;6.67;;;15.80;99.90;;;;;;5005241;28;20237;-79
2021/05/29 11:32:47;;;;;;;6.77;6.10;;;16.00;99.90;;;;;;5004335;28;20205;-80
2021/05/29 11:35:35;;;;;;;7.90;6.40;;;15.80;99.90;;;;;;5004820;28;20220;-80
2021/05/29 11:38:10;;;;;;;9.03;7.03;;;15.80;99.90;;;;;;5005049;28;20233;-80
2021/05/29 11:40:45;;;;;;;7.17;6.47;;;15.50;99.90;;;;;;5004873;28;20213;-81
2021/05/29 11:43:14;;;;;;;7.23;6.63;;;15.70;99.90;;;;;;5004580;28;20252;-81
2021/05/29 11:45:42;;;;;;;7.60;6.00;;;15.80;99.90;;;;;;5004624;28;20198;-80
2021/05/29 11:48:09;;;;;;;9.20;6.40;;;16.20;99.90;;;;;;5004345;28;20218;-81
2021/05/29 11:50:40;;;;;;;8.83;6.17;;;16.60;99.90;;;;;;5004327;28;21032;-80
2021/05/29 11:53:07;;;;;;;9.27;7.67;;;16.70;99.90;;;;;;5004632;28;20248;-80
2021/05/29 11:55:49;;;;;;;7.83;6.00;;;16.40;99.90;;;;;;5004608;28;20209;-80
2021/05/29 11:58:17;;;;;;;11.53;6.77;;;16.40;99.90;;;;;;5004538;28;20586;-79
2021/05/29 12:00:56;;;;;;;7.17;6.07;;;16.30;99.90;;;;;;5004507;28;20217;-80
2021/05/29 12:03:35;;;;;;;6.40;5.70;;;16.00;99.90;;;;;;5004709;28;20235;-80
2021/05/29 12:06:02;;;;;;;7.70;5.30;;;16.10;99.90;;;;;;5004354;28;20212;-79
2021/05/29 12:08:28;;;;;;;10.37;5.97;;;16.50;99.90;;;;;;5004442;28;20212;-79
2021/05/29 12:10:55;;;;;;;6.43;5.73;;;16.80;99.90;;;;;;5004548;28;20290;-79
2021/05/29 12:13:28;;;;;;;7.73;5.80;;;16.80;99.90;;;;;;5003953;28;20272;-79
2021/05/29 12:15:59;;;;;;;6.87;5.63;;;16.60;99.90;;;;;;5004368;28;20287;-80
2021/05/29 12:18:26;;;;;;;6.80;5.67;;;16.40;99.90;;;;;;5003864;28;20668;-80
2021/05/29 12:20:56;;;;;;;5.97;5.37;;;16.30;99.90;;;;;;5003641;28;20300;-80
2021/05/29 12:23:23;;;;;;;8.33;7.10;;;16.50;99.90;;;;;;5003877;28;20308;-80
2021/05/29 12:25:49;;;;;;;6.77;5.73;;;16.30;99.90;;;;;;5003647;28;20698;-79
2021/05/29 12:28:16;;;;;;;7.97;5.40;;;15.90;99.90;;;;;;5003901;28;20206;-80
2021/05/29 12:30:43;;;;;;;5.93;5.10;;;16.00;99.90;;;;;;5003288;28;20229;-79
2021/05/29 12:33:20;;;;;;;8.70;5.33;;;16.70;99.90;;;;;;5003721;28;20274;-79
2021/05/29 12:35:47;;;;;;;5.93;4.60;;;17.30;99.90;;;;;;5003695;28;20213;-78
2021/05/29 12:38:15;;;;;;;5.80;5.37;;;17.30;99.90;;;;;;5003997;28;20245;-79
2021/05/29 12:40:56;;;;;;;5.73;5.20;;;17.40;99.90;;;;;;5003649;28;20505;-78
2021/05/29 12:43:22;;;;;;;6.30;5.13;;;16.90;99.90;;;;;;5003800;28;20240;-78
2021/05/29 12:45:49;;;;;;;5.10;4.70;;;17.20;99.90;;;;;;5003904;28;20259;-79
2021/05/29 12:48:15;;;;;;;5.53;5.00;;;17.40;99.90;;;;;;5004489;28;20236;-78
2021/05/29 12:53:24;;;;;;;8.00;5.67;;;17.40;99.90;;;;;;5001731;28;20709;-78
2021/05/29 12:56:07;;;;;;;6.53;5.90;;;17.70;99.90;;;;;;5003485;28;20239;-78
2021/05/29 12:58:33;;;;;;;5.63;5.10;;;17.80;99.90;;;;;;5003572;28;20217;-79